sensor_id;sensor_type;location;lat;lon;timestamp;pressure;altitude;pressure_sealevel;temperature;humidity
75013;BME280;63567;49.956;20.130;2023-04-28T00:01:15;97472.56;;;4.98;57.26
75013;BME280;63567;49.956;20.130;2023-04-28T00:03:40;97501.13;;;5.09;57.13
75013;BME280;63567;49.956;20.130;2023-04-28T00:06:06;97498.38;;;5.11;57.22
75013;BME280;63567;49.956;20.130;2023-04-28T00:08:31;97497.97;;;5.06;57.14
75013;BME280;63567;49.956;20.130;2023-04-28T00:10:57;97497.81;;;5.07;57.59
75013;BME280;63567;49.956;20.130;2023-04-28T00:13:23;97468.59;;;4.94;58.13
75013;BME280;63567;49.956;20.130;2023-04-28T00:15:49;97466.28;;;4.91;57.87
75013;BME280;63567;49.956;20.130;2023-04-28T00:18:14;97458.19;;;4.84;57.22
75013;BME280;63567;49.956;20.130;2023-04-28T00:20:40;97491.81;;;4.97;57.78
75013;BME280;63567;49.956;20.130;2023-04-28T00:23:05;97463.56;;;4.83;58.04
75013;BME280;63567;49.956;20.130;2023-04-28T00:25:30;97462.72;;;4.82;57.91
75013;BME280;63567;49.956;20.130;2023-04-28T00:27:56;97487.28;;;4.89;58.26
75013;BME280;63567;49.956;20.130;2023-04-28T00:30:21;97481.69;;;4.84;58.27
75013;BME280;63567;49.956;20.130;2023-04-28T00:32:49;97464.53;;;4.72;58.05
75013;BME280;63567;49.956;20.130;2023-04-28T00:35:14;97481.97;;;4.71;58.54
75013;BME280;63567;49.956;20.130;2023-04-28T00:37:40;97482.13;;;4.70;58.77
75013;BME280;63567;49.956;20.130;2023-04-28T00:40:06;97483.91;;;4.69;58.52
75013;BME280;63567;49.956;20.130;2023-04-28T00:42:31;97454.69;;;4.46;58.90
75013;BME280;63567;49.956;20.130;2023-04-28T00:44:56;97490.91;;;4.59;58.88
75013;BME280;63567;49.956;20.130;2023-04-28T00:47:22;97467.19;;;4.43;59.13
75013;BME280;63567;49.956;20.130;2023-04-28T00:49:48;97488.31;;;4.59;58.93
75013;BME280;63567;49.956;20.130;2023-04-28T00:52:14;97461.00;;;4.44;58.13
75013;BME280;63567;49.956;20.130;2023-04-28T00:54:39;97482.94;;;4.51;59.05
75013;BME280;63567;49.956;20.130;2023-04-28T00:57:07;97487.91;;;4.54;59.15
75013;BME280;63567;49.956;20.130;2023-04-28T00:59:33;97491.34;;;4.55;59.09
75013;BME280;63567;49.956;20.130;2023-04-28T01:01:59;97482.81;;;4.52;59.04
75013;BME280;63567;49.956;20.130;2023-04-28T01:04:25;97483.94;;;4.50;58.83
75013;BME280;63567;49.956;20.130;2023-04-28T01:06:52;97468.31;;;4.40;58.69
75013;BME280;63567;49.956;20.130;2023-04-28T01:09:19;97485.03;;;4.47;59.35
75013;BME280;63567;49.956;20.130;2023-04-28T01:11:45;97488.84;;;4.53;58.84
75013;BME280;63567;49.956;20.130;2023-04-28T01:14:10;97492.44;;;4.52;59.08
75013;BME280;63567;49.956;20.130;2023-04-28T01:16:37;97482.94;;;4.51;59.06
75013;BME280;63567;49.956;20.130;2023-04-28T01:19:11;97478.84;;;4.48;58.97
75013;BME280;63567;49.956;20.130;2023-04-28T01:21:40;97487.53;;;4.49;59.21
75013;BME280;63567;49.956;20.130;2023-04-28T01:24:05;97480.94;;;4.45;59.40
75013;BME280;63567;49.956;20.130;2023-04-28T01:26:31;97481.47;;;4.48;58.63
75013;BME280;63567;49.956;20.130;2023-04-28T01:28:56;97461.84;;;4.35;59.61
75013;BME280;63567;49.956;20.130;2023-04-28T01:31:21;97484.63;;;4.42;59.28
75013;BME280;63567;49.956;20.130;2023-04-28T01:33:47;97483.81;;;4.32;59.28
75013;BME280;63567;49.956;20.130;2023-04-28T01:36:12;97474.50;;;4.29;59.86
75013;BME280;63567;49.956;20.130;2023-04-28T01:38:37;97482.72;;;4.35;60.30
75013;BME280;63567;49.956;20.130;2023-04-28T01:41:03;97489.72;;;4.34;60.16
75013;BME280;63567;49.956;20.130;2023-04-28T01:43:28;97486.25;;;4.33;59.81
75013;BME280;63567;49.956;20.130;2023-04-28T01:45:54;97477.22;;;4.28;59.74
75013;BME280;63567;49.956;20.130;2023-04-28T01:48:19;97468.97;;;4.13;60.55
75013;BME280;63567;49.956;20.130;2023-04-28T01:50:44;97481.63;;;4.27;60.67
75013;BME280;63567;49.956;20.130;2023-04-28T01:53:10;97490.13;;;4.29;60.57
75013;BME280;63567;49.956;20.130;2023-04-28T01:55:36;97488.47;;;4.28;60.06
75013;BME280;63567;49.956;20.130;2023-04-28T01:58:02;97486.84;;;4.27;60.92
75013;BME280;63567;49.956;20.130;2023-04-28T02:00:27;97479.81;;;4.18;60.64
75013;BME280;63567;49.956;20.130;2023-04-28T02:02:53;97490.25;;;4.28;60.54
75013;BME280;63567;49.956;20.130;2023-04-28T02:05:18;97492.59;;;4.21;60.31
75013;BME280;63567;49.956;20.130;2023-04-28T02:07:43;97490.25;;;4.18;60.99
75013;BME280;63567;49.956;20.130;2023-04-28T02:10:09;97483.28;;;4.19;60.76
75013;BME280;63567;49.956;20.130;2023-04-28T02:12:34;97492.31;;;4.24;60.58
75013;BME280;63567;49.956;20.130;2023-04-28T02:15:00;97490.25;;;4.28;61.04
75013;BME280;63567;49.956;20.130;2023-04-28T02:17:25;97492.88;;;4.28;60.95
75013;BME280;63567;49.956;20.130;2023-04-28T02:19:54;97488.19;;;4.22;60.39
75013;BME280;63567;49.956;20.130;2023-04-28T02:22:23;97489.00;;;4.22;61.00
75013;BME280;63567;49.956;20.130;2023-04-28T02:24:49;97482.16;;;4.21;60.80
75013;BME280;63567;49.956;20.130;2023-04-28T02:27:15;97484.50;;;4.24;61.09
75013;BME280;63567;49.956;20.130;2023-04-28T02:29:40;97486.28;;;4.24;60.86
75013;BME280;63567;49.956;20.130;2023-04-28T02:32:06;97473.63;;;4.09;60.33
75013;BME280;63567;49.956;20.130;2023-04-28T02:34:32;97491.38;;;4.25;60.70
75013;BME280;63567;49.956;20.130;2023-04-28T02:36:57;97493.97;;;4.25;60.68
75013;BME280;63567;49.956;20.130;2023-04-28T02:39:23;97472.69;;;4.10;60.83
75013;BME280;63567;49.956;20.130;2023-04-28T02:41:51;97492.44;;;4.23;60.29
75013;BME280;63567;49.956;20.130;2023-04-28T02:44:16;97494.09;;;4.24;60.64
75013;BME280;63567;49.956;20.130;2023-04-28T02:46:42;97490.69;;;4.23;60.69
75013;BME280;63567;49.956;20.130;2023-04-28T02:49:07;97494.38;;;4.21;60.94
75013;BME280;63567;49.956;20.130;2023-04-28T02:51:33;97478.31;;;4.16;60.97
75013;BME280;63567;49.956;20.130;2023-04-28T02:53:58;97489.81;;;4.23;61.09
75013;BME280;63567;49.956;20.130;2023-04-28T02:56:23;97499.19;;;4.25;60.82
75013;BME280;63567;49.956;20.130;2023-04-28T02:58:49;97497.25;;;4.27;61.24
75013;BME280;63567;49.956;20.130;2023-04-28T03:01:14;97487.09;;;4.24;61.23
75013;BME280;63567;49.956;20.130;2023-04-28T03:03:40;97477.38;;;4.17;60.44
75013;BME280;63567;49.956;20.130;2023-04-28T03:06:06;97491.22;;;4.27;60.78
75013;BME280;63567;49.956;20.130;2023-04-28T03:08:31;97458.00;;;4.09;60.72
75013;BME280;63567;49.956;20.130;2023-04-28T03:10:56;97485.31;;;4.25;61.11
75013;BME280;63567;49.956;20.130;2023-04-28T03:13:22;97478.31;;;4.16;61.72
75013;BME280;63567;49.956;20.130;2023-04-28T03:15:47;97456.50;;;4.07;61.03
75013;BME280;63567;49.956;20.130;2023-04-28T03:18:12;97456.09;;;4.02;61.46
75013;BME280;63567;49.956;20.130;2023-04-28T03:20:38;97482.31;;;4.10;60.77
75013;BME280;63567;49.956;20.130;2023-04-28T03:23:03;97464.44;;;3.96;61.01
75013;BME280;63567;49.956;20.130;2023-04-28T03:25:28;97492.16;;;4.06;61.17
75013;BME280;63567;49.956;20.130;2023-04-28T03:27:54;97487.09;;;4.05;60.50
75013;BME280;63567;49.956;20.130;2023-04-28T03:30:20;97486.41;;;4.03;60.90
75013;BME280;63567;49.956;20.130;2023-04-28T03:32:45;97482.69;;;3.96;61.10
75013;BME280;63567;49.956;20.130;2023-04-28T03:35:10;97482.13;;;3.82;61.34
75013;BME280;63567;49.956;20.130;2023-04-28T03:37:36;97486.41;;;3.93;60.76
75013;BME280;63567;49.956;20.130;2023-04-28T03:40:01;97463.72;;;3.74;61.04
75013;BME280;63567;49.956;20.130;2023-04-28T03:42:27;97485.94;;;3.78;61.88
75013;BME280;63567;49.956;20.130;2023-04-28T03:44:53;97490.06;;;3.81;61.39
75013;BME280;63567;49.956;20.130;2023-04-28T03:47:18;97490.06;;;3.81;61.66
75013;BME280;63567;49.956;20.130;2023-04-28T03:49:44;97491.72;;;3.82;61.28
75013;BME280;63567;49.956;20.130;2023-04-28T03:52:09;97488.16;;;3.83;61.89
75013;BME280;63567;49.956;20.130;2023-04-28T03:54:35;97479.38;;;3.74;61.77
75013;BME280;63567;49.956;20.130;2023-04-28T03:57:00;97495.16;;;3.82;61.51
75013;BME280;63567;49.956;20.130;2023-04-28T03:59:26;97461.78;;;3.57;62.19
75013;BME280;63567;49.956;20.130;2023-04-28T04:01:51;97493.34;;;3.73;61.70
75013;BME280;63567;49.956;20.130;2023-04-28T04:04:16;97488.41;;;3.70;62.67
75013;BME280;63567;49.956;20.130;2023-04-28T04:06:42;97501.81;;;3.65;62.62
75013;BME280;63567;49.956;20.130;2023-04-28T04:09:07;97487.72;;;3.68;62.46
75013;BME280;63567;49.956;20.130;2023-04-28T04:11:33;97490.72;;;3.63;62.18
75013;BME280;63567;49.956;20.130;2023-04-28T04:13:58;97498.25;;;3.66;62.70
75013;BME280;63567;49.956;20.130;2023-04-28T04:16:23;97478.75;;;3.51;62.84
75013;BME280;63567;49.956;20.130;2023-04-28T04:18:49;97473.41;;;3.43;62.53
75013;BME280;63567;49.956;20.130;2023-04-28T04:21:14;97496.31;;;3.59;62.59
75013;BME280;63567;49.956;20.130;2023-04-28T04:23:40;97496.59;;;3.56;63.08
75013;BME280;63567;49.956;20.130;2023-04-28T04:26:05;97497.44;;;3.56;63.11
75013;BME280;63567;49.956;20.130;2023-04-28T04:28:30;97475.31;;;3.41;63.63
75013;BME280;63567;49.956;20.130;2023-04-28T04:30:56;97494.66;;;3.58;63.38
75013;BME280;63567;49.956;20.130;2023-04-28T04:33:21;97474.34;;;3.42;63.83
75013;BME280;63567;49.956;20.130;2023-04-28T04:35:47;97491.91;;;3.49;63.62
75013;BME280;63567;49.956;20.130;2023-04-28T04:38:12;97493.16;;;3.55;63.77
75013;BME280;63567;49.956;20.130;2023-04-28T04:40:38;97489.91;;;3.63;63.79
75013;BME280;63567;49.956;20.130;2023-04-28T04:43:03;97466.81;;;3.39;64.69
75013;BME280;63567;49.956;20.130;2023-04-28T04:45:29;97488.91;;;3.54;64.08
75013;BME280;63567;49.956;20.130;2023-04-28T04:47:54;97492.63;;;3.61;64.24
75013;BME280;63567;49.956;20.130;2023-04-28T04:50:20;97496.34;;;3.68;64.21
75013;BME280;63567;49.956;20.130;2023-04-28T04:52:45;97485.22;;;3.66;64.39
75013;BME280;63567;49.956;20.130;2023-04-28T04:55:10;97491.00;;;3.70;64.03
75013;BME280;63567;49.956;20.130;2023-04-28T04:57:36;97482.78;;;3.75;63.98
75013;BME280;63567;49.956;20.130;2023-04-28T05:00:02;97483.88;;;3.72;64.23
75013;BME280;63567;49.956;20.130;2023-04-28T05:02:28;97494.59;;;3.79;63.73
75013;BME280;63567;49.956;20.130;2023-04-28T05:04:54;97487.59;;;3.79;64.35
75013;BME280;63567;49.956;20.130;2023-04-28T05:07:19;97473.75;;;3.79;64.05
75013;BME280;63567;49.956;20.130;2023-04-28T05:09:44;97481.00;;;3.75;63.76
75013;BME280;63567;49.956;20.130;2023-04-28T05:12:10;97496.81;;;3.93;64.12
75013;BME280;63567;49.956;20.130;2023-04-28T05:14:35;97493.41;;;4.02;64.07
75013;BME280;63567;49.956;20.130;2023-04-28T05:17:01;97489.00;;;4.03;63.97
75013;BME280;63567;49.956;20.130;2023-04-28T05:19:26;97496.03;;;4.12;63.78
75013;BME280;63567;49.956;20.130;2023-04-28T05:21:52;97477.75;;;4.02;63.85
75013;BME280;63567;49.956;20.130;2023-04-28T05:24:20;97494.22;;;4.22;63.56
75013;BME280;63567;49.956;20.130;2023-04-28T05:26:47;97488.47;;;4.28;63.44
75013;BME280;63567;49.956;20.130;2023-04-28T05:29:13;97492.59;;;4.31;63.44
75013;BME280;63567;49.956;20.130;2023-04-28T05:31:38;97500.00;;;4.36;63.46
75013;BME280;63567;49.956;20.130;2023-04-28T05:34:03;97495.34;;;4.39;63.82
75013;BME280;63567;49.956;20.130;2023-04-28T05:36:29;97499.03;;;4.46;63.92
75013;BME280;63567;49.956;20.130;2023-04-28T05:38:55;97496.00;;;4.51;64.08
75013;BME280;63567;49.956;20.130;2023-04-28T05:41:21;97494.94;;;4.53;64.18
75013;BME280;63567;49.956;20.130;2023-04-28T05:43:46;97504.53;;;4.63;64.16
75013;BME280;63567;49.956;20.130;2023-04-28T05:46:15;97491.59;;;4.71;64.48
75013;BME280;63567;49.956;20.130;2023-04-28T05:48:40;97488.44;;;4.67;63.83
75013;BME280;63567;49.956;20.130;2023-04-28T05:51:05;97507.78;;;4.84;63.67
75013;BME280;63567;49.956;20.130;2023-04-28T05:53:31;97511.91;;;4.97;63.36
75013;BME280;63567;49.956;20.130;2023-04-28T05:55:56;97507.06;;;5.02;63.52
75013;BME280;63567;49.956;20.130;2023-04-28T05:58:21;97508.94;;;5.09;63.79
75013;BME280;63567;49.956;20.130;2023-04-28T06:00:47;97480.13;;;5.01;63.21
75013;BME280;63567;49.956;20.130;2023-04-28T06:03:12;97499.84;;;5.23;63.03
75013;BME280;63567;49.956;20.130;2023-04-28T06:05:39;97505.47;;;5.28;62.47
75013;BME280;63567;49.956;20.130;2023-04-28T06:08:05;97508.31;;;5.35;62.77
75013;BME280;63567;49.956;20.130;2023-04-28T06:10:31;97512.69;;;5.44;62.26
75013;BME280;63567;49.956;20.130;2023-04-28T06:12:57;97509.06;;;5.55;61.92
75013;BME280;63567;49.956;20.130;2023-04-28T06:15:22;97514.38;;;5.63;61.46
75013;BME280;63567;49.956;20.130;2023-04-28T06:17:48;97507.09;;;5.67;61.18
75013;BME280;63567;49.956;20.130;2023-04-28T06:20:13;97510.47;;;5.77;60.78
75013;BME280;63567;49.956;20.130;2023-04-28T06:22:39;97492.09;;;5.69;60.62
75013;BME280;63567;49.956;20.130;2023-04-28T06:25:05;97487.91;;;5.76;60.61
75013;BME280;63567;49.956;20.130;2023-04-28T06:27:31;97488.16;;;5.83;60.64
75013;BME280;63567;49.956;20.130;2023-04-28T06:29:57;97507.16;;;6.03;60.33
75013;BME280;63567;49.956;20.130;2023-04-28T06:32:23;97509.75;;;6.12;60.22
75013;BME280;63567;49.956;20.130;2023-04-28T06:34:48;97513.25;;;6.21;59.90
75013;BME280;63567;49.956;20.130;2023-04-28T06:37:13;97490.31;;;6.15;59.76
75013;BME280;63567;49.956;20.130;2023-04-28T06:39:39;97486.78;;;6.24;58.91
75013;BME280;63567;49.956;20.130;2023-04-28T06:42:04;97521.50;;;6.44;58.24
75013;BME280;63567;49.956;20.130;2023-04-28T06:44:30;97514.69;;;6.51;57.61
75013;BME280;63567;49.956;20.130;2023-04-28T06:46:55;97519.47;;;6.56;58.15
75013;BME280;63567;49.956;20.130;2023-04-28T06:49:21;97518.25;;;6.68;57.93
75013;BME280;63567;49.956;20.130;2023-04-28T06:51:46;97514.19;;;6.74;58.04
75013;BME280;63567;49.956;20.130;2023-04-28T06:54:11;97498.66;;;6.72;58.00
75013;BME280;63567;49.956;20.130;2023-04-28T06:56:37;97510.72;;;6.91;57.24
75013;BME280;63567;49.956;20.130;2023-04-28T06:59:03;97495.63;;;6.85;56.90
75013;BME280;63567;49.956;20.130;2023-04-28T07:01:28;97512.66;;;7.07;56.09
75013;BME280;63567;49.956;20.130;2023-04-28T07:03:53;97485.78;;;7.05;56.35
75013;BME280;63567;49.956;20.130;2023-04-28T07:06:19;97507.19;;;7.27;56.47
75013;BME280;63567;49.956;20.130;2023-04-28T07:08:44;97509.84;;;7.35;56.42
75013;BME280;63567;49.956;20.130;2023-04-28T07:11:10;97488.06;;;7.34;56.43
75013;BME280;63567;49.956;20.130;2023-04-28T07:13:36;97483.53;;;7.45;55.35
75013;BME280;63567;49.956;20.130;2023-04-28T07:16:01;97504.25;;;7.64;54.91
75013;BME280;63567;49.956;20.130;2023-04-28T07:18:27;97480.31;;;7.59;54.77
75013;BME280;63567;49.956;20.130;2023-04-28T07:20:52;97496.94;;;7.84;55.08
75013;BME280;63567;49.956;20.130;2023-04-28T07:23:18;97496.31;;;7.90;54.11
75013;BME280;63567;49.956;20.130;2023-04-28T07:25:43;97502.91;;;8.02;53.74
75013;BME280;63567;49.956;20.130;2023-04-28T07:28:08;97497.50;;;8.12;53.31
75013;BME280;63567;49.956;20.130;2023-04-28T07:30:34;97494.91;;;8.20;53.22
75013;BME280;63567;49.956;20.130;2023-04-28T07:33:00;97476.53;;;8.29;53.65
75013;BME280;63567;49.956;20.130;2023-04-28T07:35:25;97490.50;;;8.46;53.56
75013;BME280;63567;49.956;20.130;2023-04-28T07:37:51;97484.63;;;8.60;53.94
75013;BME280;63567;49.956;20.130;2023-04-28T07:40:17;97487.41;;;8.75;54.50
75013;BME280;63567;49.956;20.130;2023-04-28T07:42:43;97484.59;;;8.93;54.15
75013;BME280;63567;49.956;20.130;2023-04-28T07:45:09;97471.78;;;8.98;53.57
75013;BME280;63567;49.956;20.130;2023-04-28T07:47:35;97476.03;;;9.15;52.16
75013;BME280;63567;49.956;20.130;2023-04-28T07:50:01;97455.47;;;9.19;53.18
75013;BME280;63567;49.956;20.130;2023-04-28T07:52:29;97481.50;;;9.45;52.74
75013;BME280;63567;49.956;20.130;2023-04-28T07:54:55;97473.25;;;9.56;52.70
75013;BME280;63567;49.956;20.130;2023-04-28T07:57:21;97471.59;;;9.63;50.85
75013;BME280;63567;49.956;20.130;2023-04-28T07:59:46;97469.22;;;9.77;50.23
75013;BME280;63567;49.956;20.130;2023-04-28T08:02:12;97451.16;;;9.74;49.94
75013;BME280;63567;49.956;20.130;2023-04-28T08:04:38;97441.09;;;9.77;50.51
75013;BME280;63567;49.956;20.130;2023-04-28T08:07:03;97479.72;;;10.08;49.21
75013;BME280;63567;49.956;20.130;2023-04-28T08:09:29;97467.00;;;10.20;48.18
75013;BME280;63567;49.956;20.130;2023-04-28T08:11:54;97462.91;;;10.40;47.51
75013;BME280;63567;49.956;20.130;2023-04-28T08:14:20;97459.34;;;10.56;47.59
75013;BME280;63567;49.956;20.130;2023-04-28T08:16:45;97462.00;;;10.71;48.35
75013;BME280;63567;49.956;20.130;2023-04-28T08:19:11;97451.06;;;10.82;47.49
75013;BME280;63567;49.956;20.130;2023-04-28T08:21:36;97459.81;;;10.98;46.22
75013;BME280;63567;49.956;20.130;2023-04-28T08:24:02;97434.06;;;11.00;45.05
75013;BME280;63567;49.956;20.130;2023-04-28T08:26:27;97456.34;;;11.27;45.67
75013;BME280;63567;49.956;20.130;2023-04-28T08:28:53;97435.88;;;11.29;46.27
75013;BME280;63567;49.956;20.130;2023-04-28T08:31:18;97441.63;;;11.47;46.94
75013;BME280;63567;49.956;20.130;2023-04-28T08:33:44;97452.66;;;11.72;45.79
75013;BME280;63567;49.956;20.130;2023-04-28T08:36:12;97452.19;;;11.84;45.90
75013;BME280;63567;49.956;20.130;2023-04-28T08:38:39;97451.38;;;11.98;46.89
75013;BME280;63567;49.956;20.130;2023-04-28T08:41:05;97446.50;;;12.17;46.70
75013;BME280;63567;49.956;20.130;2023-04-28T08:43:39;97449.25;;;12.30;45.41
75013;BME280;63567;49.956;20.130;2023-04-28T08:46:07;97447.56;;;12.44;44.06
75013;BME280;63567;49.956;20.130;2023-04-28T08:48:39;97421.31;;;12.42;45.41
75013;BME280;63567;49.956;20.130;2023-04-28T08:51:06;97434.13;;;12.67;45.46
75013;BME280;63567;49.956;20.130;2023-04-28T08:53:36;97441.41;;;12.86;43.11
75013;BME280;63567;49.956;20.130;2023-04-28T08:56:04;97441.91;;;13.03;42.60
75013;BME280;63567;49.956;20.130;2023-04-28T08:58:29;97452.63;;;13.23;42.21
75013;BME280;63567;49.956;20.130;2023-04-28T09:00:55;97440.31;;;13.37;41.75
75013;BME280;63567;49.956;20.130;2023-04-28T09:03:20;97440.19;;;13.52;41.87
75013;BME280;63567;49.956;20.130;2023-04-28T09:05:46;97441.81;;;13.53;40.53
75013;BME280;63567;49.956;20.130;2023-04-28T09:08:11;97434.13;;;13.65;39.52
75013;BME280;63567;49.956;20.130;2023-04-28T09:10:37;97423.59;;;13.78;40.29
75013;BME280;63567;49.956;20.130;2023-04-28T09:13:03;97421.78;;;13.92;41.52
75013;BME280;63567;49.956;20.130;2023-04-28T09:15:36;97405.28;;;13.96;42.69
75013;BME280;63567;49.956;20.130;2023-04-28T09:18:03;97431.25;;;14.21;40.05
75013;BME280;63567;49.956;20.130;2023-04-28T09:20:30;97426.13;;;14.33;40.83
75013;BME280;63567;49.956;20.130;2023-04-28T09:22:56;97409.44;;;14.26;39.17
75013;BME280;63567;49.956;20.130;2023-04-28T09:25:36;97422.94;;;14.57;39.56
75013;BME280;63567;49.956;20.130;2023-04-28T09:28:18;97423.72;;;14.85;38.02
75013;BME280;63567;49.956;20.130;2023-04-28T09:30:44;97422.69;;;15.12;41.03
75013;BME280;63567;49.956;20.130;2023-04-28T09:33:10;97426.66;;;15.41;39.57
75013;BME280;63567;49.956;20.130;2023-04-28T09:35:42;97405.63;;;15.53;40.78
75013;BME280;63567;49.956;20.130;2023-04-28T09:38:09;97416.94;;;15.80;37.84
75013;BME280;63567;49.956;20.130;2023-04-28T09:43:30;97381.59;;;16.18;38.54
75013;BME280;63567;49.956;20.130;2023-04-28T09:46:00;97411.78;;;16.56;40.63
75013;BME280;63567;49.956;20.130;2023-04-28T09:50:55;97405.19;;;17.09;40.19
75013;BME280;63567;49.956;20.130;2023-04-28T09:53:26;97395.06;;;17.36;40.70
75013;BME280;63567;49.956;20.130;2023-04-28T09:55:53;97377.66;;;17.52;36.87
75013;BME280;63567;49.956;20.130;2023-04-28T09:58:20;97377.41;;;17.72;37.58
75013;BME280;63567;49.956;20.130;2023-04-28T10:00:57;97391.44;;;17.97;36.43
75013;BME280;63567;49.956;20.130;2023-04-28T10:03:25;97384.09;;;18.23;36.94
75013;BME280;63567;49.956;20.130;2023-04-28T10:05:51;97384.25;;;18.40;33.77
75013;BME280;63567;49.956;20.130;2023-04-28T10:08:21;97385.78;;;18.71;33.90
75013;BME280;63567;49.956;20.130;2023-04-28T10:10:48;97359.81;;;18.90;33.18
75013;BME280;63567;49.956;20.130;2023-04-28T10:13:17;97364.22;;;19.20;35.99
75013;BME280;63567;49.956;20.130;2023-04-28T10:15:44;97379.13;;;19.56;31.72
75013;BME280;63567;49.956;20.130;2023-04-28T10:18:11;97374.13;;;19.88;34.63
75013;BME280;63567;49.956;20.130;2023-04-28T10:20:37;97371.44;;;20.17;35.14
75013;BME280;63567;49.956;20.130;2023-04-28T10:25:35;97358.66;;;20.70;36.13
75013;BME280;63567;49.956;20.130;2023-04-28T10:28:07;97363.31;;;20.97;35.92
75013;BME280;63567;49.956;20.130;2023-04-28T10:30:33;97361.53;;;21.24;35.79
75013;BME280;63567;49.956;20.130;2023-04-28T10:33:23;97362.94;;;21.49;36.79
75013;BME280;63567;49.956;20.130;2023-04-28T10:35:50;97364.31;;;21.73;37.79
75013;BME280;63567;49.956;20.130;2023-04-28T10:38:17;97352.50;;;22.02;37.73
75013;BME280;63567;49.956;20.130;2023-04-28T10:40:47;97346.34;;;22.28;36.35
75013;BME280;63567;49.956;20.130;2023-04-28T10:48:20;97338.19;;;22.93;34.98
75013;BME280;63567;49.956;20.130;2023-04-28T10:58:50;97331.22;;;23.45;33.16
75013;BME280;63567;49.956;20.130;2023-04-28T11:06:23;97310.78;;;23.49;29.34
75013;BME280;63567;49.956;20.130;2023-04-28T11:08:58;97311.56;;;23.44;29.30
75013;BME280;63567;49.956;20.130;2023-04-28T11:11:29;97316.72;;;23.51;29.86
75013;BME280;63567;49.956;20.130;2023-04-28T11:16:56;97311.13;;;23.78;29.39
75013;BME280;63567;49.956;20.130;2023-04-28T11:19:26;97288.28;;;23.86;30.28
75013;BME280;63567;49.956;20.130;2023-04-28T11:22:04;97305.25;;;24.17;29.13
75013;BME280;63567;49.956;20.130;2023-04-28T11:24:35;97299.31;;;24.46;28.57
75013;BME280;63567;49.956;20.130;2023-04-28T11:27:00;97290.16;;;24.67;28.38
75013;BME280;63567;49.956;20.130;2023-04-28T11:29:37;97306.22;;;24.98;28.22
75013;BME280;63567;49.956;20.130;2023-04-28T11:32:04;97299.41;;;25.26;27.38
75013;BME280;63567;49.956;20.130;2023-04-28T11:34:30;97300.09;;;25.52;28.15
75013;BME280;63567;49.956;20.130;2023-04-28T11:36:56;97301.06;;;25.77;27.18
75013;BME280;63567;49.956;20.130;2023-04-28T11:39:32;97291.19;;;26.01;27.10
75013;BME280;63567;49.956;20.130;2023-04-28T11:41:59;97260.16;;;25.99;26.16
75013;BME280;63567;49.956;20.130;2023-04-28T11:44:26;97289.31;;;26.31;25.92
75013;BME280;63567;49.956;20.130;2023-04-28T11:47:01;97285.09;;;26.49;25.46
75013;BME280;63567;49.956;20.130;2023-04-28T11:49:31;97290.09;;;26.66;24.90
75013;BME280;63567;49.956;20.130;2023-04-28T11:52:04;97283.44;;;26.82;25.34
75013;BME280;63567;49.956;20.130;2023-04-28T11:54:30;97271.13;;;26.95;24.87
75013;BME280;63567;49.956;20.130;2023-04-28T11:56:58;97273.34;;;27.12;24.65
75013;BME280;63567;49.956;20.130;2023-04-28T11:59:26;97274.22;;;27.32;24.64
75013;BME280;63567;49.956;20.130;2023-04-28T12:01:57;97272.19;;;27.42;24.75
75013;BME280;63567;49.956;20.130;2023-04-28T12:04:30;97269.25;;;27.39;23.88
75013;BME280;63567;49.956;20.130;2023-04-28T12:07:10;97261.44;;;27.37;22.84
75013;BME280;63567;49.956;20.130;2023-04-28T12:09:38;97251.13;;;27.39;23.84
75013;BME280;63567;49.956;20.130;2023-04-28T12:12:06;97261.13;;;27.58;22.92
75013;BME280;63567;49.956;20.130;2023-04-28T12:14:52;97250.81;;;27.60;23.35
75013;BME280;63567;49.956;20.130;2023-04-28T12:17:27;97250.72;;;27.84;22.73
75013;BME280;63567;49.956;20.130;2023-04-28T12:19:54;97221.09;;;27.93;23.00
75013;BME280;63567;49.956;20.130;2023-04-28T12:22:20;97231.22;;;28.20;23.32
75013;BME280;63567;49.956;20.130;2023-04-28T12:24:45;97240.78;;;28.45;23.08
75013;BME280;63567;49.956;20.130;2023-04-28T12:27:19;97225.84;;;28.47;22.35
75013;BME280;63567;49.956;20.130;2023-04-28T12:29:46;97233.22;;;28.75;22.19
75013;BME280;63567;49.956;20.130;2023-04-28T12:32:12;97236.31;;;28.82;20.36
75013;BME280;63567;49.956;20.130;2023-04-28T12:34:39;97229.09;;;28.91;20.33
75013;BME280;63567;49.956;20.130;2023-04-28T12:37:05;97231.00;;;29.04;21.25
75013;BME280;63567;49.956;20.130;2023-04-28T12:39:32;97222.34;;;29.16;20.86
75013;BME280;63567;49.956;20.130;2023-04-28T12:41:59;97215.72;;;29.22;20.02
75013;BME280;63567;49.956;20.130;2023-04-28T12:44:26;97217.59;;;29.36;20.09
75013;BME280;63567;49.956;20.130;2023-04-28T12:46:52;97192.88;;;29.60;20.45
75013;BME280;63567;49.956;20.130;2023-04-28T12:49:18;97176.44;;;29.79;20.43
75013;BME280;63567;49.956;20.130;2023-04-28T12:51:44;97191.59;;;30.02;19.84
75013;BME280;63567;49.956;20.130;2023-04-28T12:54:09;97198.66;;;30.12;20.13
75013;BME280;63567;49.956;20.130;2023-04-28T12:56:35;97172.00;;;30.14;19.98
75013;BME280;63567;49.956;20.130;2023-04-28T12:59:00;97180.88;;;30.28;19.60
75013;BME280;63567;49.956;20.130;2023-04-28T13:01:30;97180.63;;;30.39;19.25
75013;BME280;63567;49.956;20.130;2023-04-28T13:03:55;97185.75;;;30.49;19.28
75013;BME280;63567;49.956;20.130;2023-04-28T13:06:21;97165.75;;;30.36;18.98
75013;BME280;63567;49.956;20.130;2023-04-28T13:08:46;97185.44;;;30.42;19.55
75013;BME280;63567;49.956;20.130;2023-04-28T13:11:11;97182.41;;;30.43;18.67
75013;BME280;63567;49.956;20.130;2023-04-28T13:13:37;97174.84;;;30.40;18.35
75013;BME280;63567;49.956;20.130;2023-04-28T13:16:03;97179.50;;;30.40;18.50
75013;BME280;63567;49.956;20.130;2023-04-28T13:18:29;97170.41;;;30.53;18.82
75013;BME280;63567;49.956;20.130;2023-04-28T13:20:55;97153.81;;;30.55;18.76
75013;BME280;63567;49.956;20.130;2023-04-28T13:23:21;97158.00;;;30.69;17.90